sensor_id;sensor_type;location;lat;lon;timestamp;P1;durP1;ratioP1;P2;durP2;ratioP2
75303;SDS011;64042;50.916;6.988;2023-03-01T00:00:36;2.25;;;2.05;;
75303;SDS011;64042;50.916;6.988;2023-03-01T00:03:02;2.20;;;2.00;;
75303;SDS011;64042;50.916;6.988;2023-03-01T00:05:27;2.45;;;1.70;;
75303;SDS011;64042;50.916;6.988;2023-03-01T00:07:53;4.13;;;3.90;;
75303;SDS011;64042;50.916;6.988;2023-03-01T00:10:18;2.10;;;2.00;;
75303;SDS011;64042;50.916;6.988;2023-03-01T00:12:43;2.30;;;2.10;;
75303;SDS011;64042;50.916;6.988;2023-03-01T00:15:09;2.97;;;1.95;;
75303;SDS011;64042;50.916;6.988;2023-03-01T00:17:34;3.13;;;2.30;;
75303;SDS011;64042;50.916;6.988;2023-03-01T00:19:59;2.50;;;2.30;;
75303;SDS011;64042;50.916;6.988;2023-03-01T00:22:26;2.10;;;1.90;;
75303;SDS011;64042;50.916;6.988;2023-03-01T00:24:53;2.85;;;2.65;;
75303;SDS011;64042;50.916;6.988;2023-03-01T00:27:18;2.10;;;1.90;;
75303;SDS011;64042;50.916;6.988;2023-03-01T00:29:43;2.90;;;2.70;;
75303;SDS011;64042;50.916;6.988;2023-03-01T00:32:09;2.17;;;1.98;;
75303;SDS011;64042;50.916;6.988;2023-03-01T00:34:34;4.30;;;4.07;;
75303;SDS011;64042;50.916;6.988;2023-03-01T00:36:59;2.63;;;2.42;;
75303;SDS011;64042;50.916;6.988;2023-03-01T00:39:30;2.38;;;2.17;;
75303;SDS011;64042;50.916;6.988;2023-03-01T00:41:56;2.70;;;2.50;;
75303;SDS011;64042;50.916;6.988;2023-03-01T00:44:21;2.80;;;2.58;;
75303;SDS011;64042;50.916;6.988;2023-03-01T00:46:46;2.60;;;2.40;;
75303;SDS011;64042;50.916;6.988;2023-03-01T00:49:12;3.63;;;3.40;;
75303;SDS011;64042;50.916;6.988;2023-03-01T00:51:38;4.90;;;4.60;;
75303;SDS011;64042;50.916;6.988;2023-03-01T00:56:32;2.85;;;2.65;;
75303;SDS011;64042;50.916;6.988;2023-03-01T00:58:58;2.45;;;2.25;;
75303;SDS011;64042;50.916;6.988;2023-03-01T01:01:25;2.67;;;2.47;;
75303;SDS011;64042;50.916;6.988;2023-03-01T01:04:01;2.45;;;2.25;;
75303;SDS011;64042;50.916;6.988;2023-03-01T01:06:32;2.10;;;1.80;;
75303;SDS011;64042;50.916;6.988;2023-03-01T01:09:00;2.03;;;1.80;;
75303;SDS011;64042;50.916;6.988;2023-03-01T01:11:27;3.72;;;3.53;;
75303;SDS011;64042;50.916;6.988;2023-03-01T01:13:53;2.17;;;1.98;;
75303;SDS011;64042;50.916;6.988;2023-03-01T01:16:19;2.67;;;2.42;;
75303;SDS011;64042;50.916;6.988;2023-03-01T01:18:47;2.15;;;2.00;;
75303;SDS011;64042;50.916;6.988;2023-03-01T01:21:14;2.28;;;2.17;;
75303;SDS011;64042;50.916;6.988;2023-03-01T01:23:40;3.00;;;2.80;;
75303;SDS011;64042;50.916;6.988;2023-03-01T01:26:08;2.20;;;1.88;;
75303;SDS011;64042;50.916;6.988;2023-03-01T01:28:38;2.63;;;2.42;;
75303;SDS011;64042;50.916;6.988;2023-03-01T01:31:04;2.20;;;2.00;;
75303;SDS011;64042;50.916;6.988;2023-03-01T01:33:30;2.33;;;2.03;;
75303;SDS011;64042;50.916;6.988;2023-03-01T01:35:55;2.35;;;2.00;;
75303;SDS011;64042;50.916;6.988;2023-03-01T01:38:21;2.55;;;2.35;;
75303;SDS011;64042;50.916;6.988;2023-03-01T01:40:46;2.20;;;2.10;;
75303;SDS011;64042;50.916;6.988;2023-03-01T01:43:22;2.63;;;2.42;;
75303;SDS011;64042;50.916;6.988;2023-03-01T01:45:59;2.10;;;2.00;;
75303;SDS011;64042;50.916;6.988;2023-03-01T01:48:34;3.35;;;3.15;;
75303;SDS011;64042;50.916;6.988;2023-03-01T01:51:11;2.13;;;1.90;;
75303;SDS011;64042;50.916;6.988;2023-03-01T01:53:38;2.40;;;2.20;;
75303;SDS011;64042;50.916;6.988;2023-03-01T01:56:05;2.28;;;2.13;;
75303;SDS011;64042;50.916;6.988;2023-03-01T01:58:31;2.35;;;2.15;;
75303;SDS011;64042;50.916;6.988;2023-03-01T02:00:57;2.80;;;2.60;;
75303;SDS011;64042;50.916;6.988;2023-03-01T02:03:27;2.55;;;2.35;;
75303;SDS011;64042;50.916;6.988;2023-03-01T02:06:12;2.63;;;2.42;;
75303;SDS011;64042;50.916;6.988;2023-03-01T02:08:42;2.58;;;2.38;;
75303;SDS011;64042;50.916;6.988;2023-03-01T02:11:08;2.10;;;1.90;;
75303;SDS011;64042;50.916;6.988;2023-03-01T02:13:34;2.70;;;2.17;;
75303;SDS011;64042;50.916;6.988;2023-03-01T02:16:02;2.83;;;2.63;;
75303;SDS011;64042;50.916;6.988;2023-03-01T02:18:34;2.00;;;1.80;;
75303;SDS011;64042;50.916;6.988;2023-03-01T02:21:05;1.95;;;1.85;;
75303;SDS011;64042;50.916;6.988;2023-03-01T02:28:58;2.47;;;1.90;;
75303;SDS011;64042;50.916;6.988;2023-03-01T02:31:24;2.97;;;2.30;;
75303;SDS011;64042;50.916;6.988;2023-03-01T02:34:08;2.03;;;1.83;;
75303;SDS011;64042;50.916;6.988;2023-03-01T02:36:38;2.67;;;2.05;;
75303;SDS011;64042;50.916;6.988;2023-03-01T02:39:06;2.00;;;1.90;;
75303;SDS011;64042;50.916;6.988;2023-03-01T02:41:39;2.72;;;2.53;;
75303;SDS011;64042;50.916;6.988;2023-03-01T02:44:06;1.70;;;1.60;;
75303;SDS011;64042;50.916;6.988;2023-03-01T02:46:31;2.50;;;2.40;;
75303;SDS011;64042;50.916;6.988;2023-03-01T02:48:57;3.17;;;2.20;;
75303;SDS011;64042;50.916;6.988;2023-03-01T02:51:41;2.40;;;2.17;;
75303;SDS011;64042;50.916;6.988;2023-03-01T02:56:42;2.42;;;2.22;;
75303;SDS011;64042;50.916;6.988;2023-03-01T02:59:08;2.05;;;1.75;;
75303;SDS011;64042;50.916;6.988;2023-03-01T03:01:34;2.75;;;2.63;;
75303;SDS011;64042;50.916;6.988;2023-03-01T03:04:10;2.35;;;2.20;;
75303;SDS011;64042;50.916;6.988;2023-03-01T03:06:36;2.10;;;2.00;;
75303;SDS011;64042;50.916;6.988;2023-03-01T03:09:02;2.58;;;2.38;;
75303;SDS011;64042;50.916;6.988;2023-03-01T03:11:28;1.95;;;1.75;;
75303;SDS011;64042;50.916;6.988;2023-03-01T03:13:54;2.17;;;1.92;;
75303;SDS011;64042;50.916;6.988;2023-03-01T03:16:19;2.22;;;2.10;;
75303;SDS011;64042;50.916;6.988;2023-03-01T03:18:45;2.40;;;2.20;;
75303;SDS011;64042;50.916;6.988;2023-03-01T03:21:13;2.75;;;2.55;;
75303;SDS011;64042;50.916;6.988;2023-03-01T03:23:39;1.80;;;1.70;;
75303;SDS011;64042;50.916;6.988;2023-03-01T03:26:04;2.47;;;2.20;;
75303;SDS011;64042;50.916;6.988;2023-03-01T03:28:31;1.98;;;1.88;;
75303;SDS011;64042;50.916;6.988;2023-03-01T03:31:00;2.72;;;2.03;;
75303;SDS011;64042;50.916;6.988;2023-03-01T03:33:29;2.30;;;2.13;;
75303;SDS011;64042;50.916;6.988;2023-03-01T03:35:57;2.25;;;2.05;;
75303;SDS011;64042;50.916;6.988;2023-03-01T03:38:23;1.75;;;1.65;;
75303;SDS011;64042;50.916;6.988;2023-03-01T03:40:55;1.98;;;1.88;;
75303;SDS011;64042;50.916;6.988;2023-03-01T03:43:27;2.42;;;2.30;;
75303;SDS011;64042;50.916;6.988;2023-03-01T03:45:52;2.10;;;2.00;;
75303;SDS011;64042;50.916;6.988;2023-03-01T03:48:18;3.13;;;2.92;;
75303;SDS011;64042;50.916;6.988;2023-03-01T03:50:51;2.55;;;2.35;;
75303;SDS011;64042;50.916;6.988;2023-03-01T03:53:19;2.42;;;2.22;;
75303;SDS011;64042;50.916;6.988;2023-03-01T03:55:45;2.42;;;2.22;;
75303;SDS011;64042;50.916;6.988;2023-03-01T03:58:14;2.15;;;1.95;;
75303;SDS011;64042;50.916;6.988;2023-03-01T04:00:41;4.03;;;3.83;;
75303;SDS011;64042;50.916;6.988;2023-03-01T04:03:07;1.77;;;1.67;;
75303;SDS011;64042;50.916;6.988;2023-03-01T04:05:33;2.75;;;2.55;;
75303;SDS011;64042;50.916;6.988;2023-03-01T04:07:59;4.03;;;3.83;;
75303;SDS011;64042;50.916;6.988;2023-03-01T04:10:28;1.98;;;1.88;;
75303;SDS011;64042;50.916;6.988;2023-03-01T04:12:54;2.92;;;2.72;;
75303;SDS011;64042;50.916;6.988;2023-03-01T04:15:21;2.67;;;2.47;;
75303;SDS011;64042;50.916;6.988;2023-03-01T04:17:48;2.63;;;2.42;;
75303;SDS011;64042;50.916;6.988;2023-03-01T04:20:16;2.33;;;1.98;;
75303;SDS011;64042;50.916;6.988;2023-03-01T04:22:43;2.25;;;1.98;;
75303;SDS011;64042;50.916;6.988;2023-03-01T04:25:11;2.92;;;2.72;;
75303;SDS011;64042;50.916;6.988;2023-03-01T04:27:39;2.20;;;2.00;;
75303;SDS011;64042;50.916;6.988;2023-03-01T04:30:04;2.30;;;2.10;;
75303;SDS011;64042;50.916;6.988;2023-03-01T04:32:30;3.28;;;3.08;;
75303;SDS011;64042;50.916;6.988;2023-03-01T04:34:56;3.88;;;3.67;;
75303;SDS011;64042;50.916;6.988;2023-03-01T04:37:22;1.95;;;1.85;;
75303;SDS011;64042;50.916;6.988;2023-03-01T04:39:49;4.07;;;3.78;;
75303;SDS011;64042;50.916;6.988;2023-03-01T04:42:15;2.50;;;2.30;;
75303;SDS011;64042;50.916;6.988;2023-03-01T04:44:41;2.53;;;2.33;;
75303;SDS011;64042;50.916;6.988;2023-03-01T04:47:07;2.10;;;1.90;;
75303;SDS011;64042;50.916;6.988;2023-03-01T04:49:33;2.13;;;2.03;;
75303;SDS011;64042;50.916;6.988;2023-03-01T04:51:58;2.53;;;2.08;;
75303;SDS011;64042;50.916;6.988;2023-03-01T04:54:30;2.55;;;2.35;;
75303;SDS011;64042;50.916;6.988;2023-03-01T04:56:56;2.20;;;2.00;;
75303;SDS011;64042;50.916;6.988;2023-03-01T04:59:22;2.53;;;2.33;;
75303;SDS011;64042;50.916;6.988;2023-03-01T05:01:48;2.88;;;1.95;;
75303;SDS011;64042;50.916;6.988;2023-03-01T05:04:13;2.17;;;1.92;;
75303;SDS011;64042;50.916;6.988;2023-03-01T05:06:39;2.05;;;1.85;;
75303;SDS011;64042;50.916;6.988;2023-03-01T05:09:04;2.33;;;2.15;;
75303;SDS011;64042;50.916;6.988;2023-03-01T05:11:30;2.70;;;2.50;;
75303;SDS011;64042;50.916;6.988;2023-03-01T05:13:58;2.63;;;2.42;;
75303;SDS011;64042;50.916;6.988;2023-03-01T05:16:24;2.20;;;2.10;;
75303;SDS011;64042;50.916;6.988;2023-03-01T05:18:49;2.28;;;2.08;;
75303;SDS011;64042;50.916;6.988;2023-03-01T05:21:15;2.60;;;2.50;;
75303;SDS011;64042;50.916;6.988;2023-03-01T05:23:41;2.00;;;1.90;;
75303;SDS011;64042;50.916;6.988;2023-03-01T05:26:07;2.28;;;2.08;;
75303;SDS011;64042;50.916;6.988;2023-03-01T05:28:32;2.20;;;2.00;;
75303;SDS011;64042;50.916;6.988;2023-03-01T05:30:58;2.35;;;2.25;;
75303;SDS011;64042;50.916;6.988;2023-03-01T05:33:24;1.88;;;1.40;;
75303;SDS011;64042;50.916;6.988;2023-03-01T05:35:50;2.85;;;2.65;;
75303;SDS011;64042;50.916;6.988;2023-03-01T05:38:16;2.25;;;1.88;;
75303;SDS011;64042;50.916;6.988;2023-03-01T05:40:42;3.13;;;2.92;;
75303;SDS011;64042;50.916;6.988;2023-03-01T05:43:09;2.22;;;2.03;;
75303;SDS011;64042;50.916;6.988;2023-03-01T05:45:35;2.42;;;2.22;;
75303;SDS011;64042;50.916;6.988;2023-03-01T05:48:01;1.73;;;1.63;;
75303;SDS011;64042;50.916;6.988;2023-03-01T05:50:27;1.55;;;1.45;;
75303;SDS011;64042;50.916;6.988;2023-03-01T05:52:58;2.25;;;2.05;;
75303;SDS011;64042;50.916;6.988;2023-03-01T05:55:25;2.70;;;2.05;;
75303;SDS011;64042;50.916;6.988;2023-03-01T05:57:50;2.03;;;1.92;;
75303;SDS011;64042;50.916;6.988;2023-03-01T06:00:16;2.10;;;1.92;;
75303;SDS011;64042;50.916;6.988;2023-03-01T06:02:43;2.28;;;2.08;;
75303;SDS011;64042;50.916;6.988;2023-03-01T06:05:09;3.72;;;3.53;;
75303;SDS011;64042;50.916;6.988;2023-03-01T06:07:35;1.85;;;1.75;;
75303;SDS011;64042;50.916;6.988;2023-03-01T06:10:01;1.98;;;1.77;;
75303;SDS011;64042;50.916;6.988;2023-03-01T06:12:29;2.15;;;1.98;;
75303;SDS011;64042;50.916;6.988;2023-03-01T06:14:56;1.75;;;1.45;;
75303;SDS011;64042;50.916;6.988;2023-03-01T06:17:21;1.83;;;1.60;;
75303;SDS011;64042;50.916;6.988;2023-03-01T06:19:46;2.47;;;2.03;;
75303;SDS011;64042;50.916;6.988;2023-03-01T06:22:12;2.33;;;2.00;;
75303;SDS011;64042;50.916;6.988;2023-03-01T06:24:37;2.13;;;2.03;;
75303;SDS011;64042;50.916;6.988;2023-03-01T06:27:03;3.30;;;3.08;;
75303;SDS011;64042;50.916;6.988;2023-03-01T06:29:28;2.67;;;2.57;;
75303;SDS011;64042;50.916;6.988;2023-03-01T06:31:54;2.15;;;1.98;;
75303;SDS011;64042;50.916;6.988;2023-03-01T06:34:19;2.00;;;1.90;;
75303;SDS011;64042;50.916;6.988;2023-03-01T06:36:46;2.33;;;2.10;;
75303;SDS011;64042;50.916;6.988;2023-03-01T06:39:12;1.98;;;1.88;;
75303;SDS011;64042;50.916;6.988;2023-03-01T06:41:37;3.60;;;3.40;;
75303;SDS011;64042;50.916;6.988;2023-03-01T06:44:02;1.92;;;1.80;;
75303;SDS011;64042;50.916;6.988;2023-03-01T06:46:28;2.05;;;1.95;;
75303;SDS011;64042;50.916;6.988;2023-03-01T06:48:53;2.57;;;1.93;;
75303;SDS011;64042;50.916;6.988;2023-03-01T06:51:18;2.10;;;1.80;;
75303;SDS011;64042;50.916;6.988;2023-03-01T06:53:45;2.47;;;2.28;;
75303;SDS011;64042;50.916;6.988;2023-03-01T06:56:11;1.65;;;1.52;;
75303;SDS011;64042;50.916;6.988;2023-03-01T06:58:36;2.27;;;2.10;;
75303;SDS011;64042;50.916;6.988;2023-03-01T07:01:05;2.67;;;2.47;;
75303;SDS011;64042;50.916;6.988;2023-03-01T07:03:31;2.20;;;2.10;;
75303;SDS011;64042;50.916;6.988;2023-03-01T07:05:56;1.95;;;1.70;;
75303;SDS011;64042;50.916;6.988;2023-03-01T07:08:22;2.25;;;1.95;;
75303;SDS011;64042;50.916;6.988;2023-03-01T07:10:47;2.28;;;2.15;;
75303;SDS011;64042;50.916;6.988;2023-03-01T07:13:12;3.47;;;3.27;;
75303;SDS011;64042;50.916;6.988;2023-03-01T07:15:39;2.50;;;2.30;;
75303;SDS011;64042;50.916;6.988;2023-03-01T07:18:05;2.63;;;2.42;;
75303;SDS011;64042;50.916;6.988;2023-03-01T07:20:30;2.00;;;1.90;;
75303;SDS011;64042;50.916;6.988;2023-03-01T07:22:55;2.20;;;2.00;;
75303;SDS011;64042;50.916;6.988;2023-03-01T07:25:23;2.65;;;2.45;;
75303;SDS011;64042;50.916;6.988;2023-03-01T07:27:49;2.47;;;2.25;;
75303;SDS011;64042;50.916;6.988;2023-03-01T07:30:16;4.85;;;4.55;;
75303;SDS011;64042;50.916;6.988;2023-03-01T07:32:41;2.20;;;2.10;;
75303;SDS011;64042;50.916;6.988;2023-03-01T07:35:07;3.50;;;2.20;;
75303;SDS011;64042;50.916;6.988;2023-03-01T07:37:32;3.28;;;2.55;;
75303;SDS011;64042;50.916;6.988;2023-03-01T07:39:58;2.60;;;2.47;;
75303;SDS011;64042;50.916;6.988;2023-03-01T07:42:23;4.27;;;3.93;;
75303;SDS011;64042;50.916;6.988;2023-03-01T07:44:48;2.92;;;2.70;;
75303;SDS011;64042;50.916;6.988;2023-03-01T07:47:13;2.70;;;2.50;;
75303;SDS011;64042;50.916;6.988;2023-03-01T07:49:39;2.83;;;2.63;;
75303;SDS011;64042;50.916;6.988;2023-03-01T07:52:04;2.23;;;2.03;;
75303;SDS011;64042;50.916;6.988;2023-03-01T07:54:29;2.58;;;2.38;;
75303;SDS011;64042;50.916;6.988;2023-03-01T07:56:56;2.43;;;2.23;;
75303;SDS011;64042;50.916;6.988;2023-03-01T07:59:21;2.92;;;2.72;;
75303;SDS011;64042;50.916;6.988;2023-03-01T08:01:48;2.33;;;2.13;;
75303;SDS011;64042;50.916;6.988;2023-03-01T08:04:13;2.78;;;2.58;;
75303;SDS011;64042;50.916;6.988;2023-03-01T08:06:39;2.87;;;2.67;;
75303;SDS011;64042;50.916;6.988;2023-03-01T08:09:04;2.40;;;2.20;;
75303;SDS011;64042;50.916;6.988;2023-03-01T08:11:29;2.67;;;2.47;;
75303;SDS011;64042;50.916;6.988;2023-03-01T08:13:55;3.30;;;3.00;;
75303;SDS011;64042;50.916;6.988;2023-03-01T08:16:21;2.63;;;2.42;;
75303;SDS011;64042;50.916;6.988;2023-03-01T08:18:46;2.87;;;2.40;;
75303;SDS011;64042;50.916;6.988;2023-03-01T08:21:12;2.67;;;2.47;;
75303;SDS011;64042;50.916;6.988;2023-03-01T08:23:39;2.40;;;2.20;;
75303;SDS011;64042;50.916;6.988;2023-03-01T08:28:32;2.63;;;2.42;;
75303;SDS011;64042;50.916;6.988;2023-03-01T08:30:57;2.65;;;2.38;;
75303;SDS011;64042;50.916;6.988;2023-03-01T08:33:23;3.08;;;2.25;;
75303;SDS011;64042;50.916;6.988;2023-03-01T08:35:48;2.90;;;2.40;;
75303;SDS011;64042;50.916;6.988;2023-03-01T08:38:13;2.90;;;2.60;;
75303;SDS011;64042;50.916;6.988;2023-03-01T08:40:38;4.90;;;4.50;;
75303;SDS011;64042;50.916;6.988;2023-03-01T08:43:04;2.93;;;2.73;;
75303;SDS011;64042;50.916;6.988;2023-03-01T08:45:29;2.88;;;2.35;;
75303;SDS011;64042;50.916;6.988;2023-03-01T08:47:54;2.50;;;2.30;;
75303;SDS011;64042;50.916;6.988;2023-03-01T08:50:20;2.60;;;2.40;;
75303;SDS011;64042;50.916;6.988;2023-03-01T08:52:45;2.28;;;2.05;;
75303;SDS011;64042;50.916;6.988;2023-03-01T08:55:10;2.80;;;2.60;;
75303;SDS011;64042;50.916;6.988;2023-03-01T08:57:35;3.90;;;3.57;;
75303;SDS011;64042;50.916;6.988;2023-03-01T09:00:01;2.37;;;2.27;;
75303;SDS011;64042;50.916;6.988;2023-03-01T09:02:28;2.72;;;2.33;;
75303;SDS011;64042;50.916;6.988;2023-03-01T09:04:53;2.77;;;2.57;;
75303;SDS011;64042;50.916;6.988;2023-03-01T09:07:18;2.70;;;2.50;;
75303;SDS011;64042;50.916;6.988;2023-03-01T09:09:43;2.83;;;2.63;;
75303;SDS011;64042;50.916;6.988;2023-03-01T09:12:09;2.50;;;2.30;;
75303;SDS011;64042;50.916;6.988;2023-03-01T09:14:34;2.73;;;2.50;;
75303;SDS011;64042;50.916;6.988;2023-03-01T09:17:02;2.53;;;2.33;;
75303;SDS011;64042;50.916;6.988;2023-03-01T09:19:27;2.83;;;2.63;;
75303;SDS011;64042;50.916;6.988;2023-03-01T09:21:53;2.58;;;2.38;;
75303;SDS011;64042;50.916;6.988;2023-03-01T09:24:20;2.40;;;2.20;;
75303;SDS011;64042;50.916;6.988;2023-03-01T09:26:46;3.08;;;2.30;;
75303;SDS011;64042;50.916;6.988;2023-03-01T09:29:12;2.90;;;2.00;;
75303;SDS011;64042;50.916;6.988;2023-03-01T09:31:38;2.72;;;2.53;;
75303;SDS011;64042;50.916;6.988;2023-03-01T09:34:03;3.15;;;2.80;;
75303;SDS011;64042;50.916;6.988;2023-03-01T09:36:29;2.38;;;2.08;;
75303;SDS011;64042;50.916;6.988;2023-03-01T09:38:54;2.63;;;2.35;;
75303;SDS011;64042;50.916;6.988;2023-03-01T09:41:26;2.53;;;2.20;;
75303;SDS011;64042;50.916;6.988;2023-03-01T09:44:35;2.40;;;2.20;;
75303;SDS011;64042;50.916;6.988;2023-03-01T09:47:03;2.40;;;1.75;;
75303;SDS011;64042;50.916;6.988;2023-03-01T09:49:33;2.58;;;2.38;;
75303;SDS011;64042;50.916;6.988;2023-03-01T09:52:13;2.45;;;2.20;;
75303;SDS011;64042;50.916;6.988;2023-03-01T09:54:46;3.80;;;3.55;;
75303;SDS011;64042;50.916;6.988;2023-03-01T10:05:21;3.83;;;3.55;;
75303;SDS011;64042;50.916;6.988;2023-03-01T10:10:36;2.92;;;2.35;;
75303;SDS011;64042;50.916;6.988;2023-03-01T10:15:50;3.25;;;2.13;;
75303;SDS011;64042;50.916;6.988;2023-03-01T10:18:21;3.00;;;2.40;;
75303;SDS011;64042;50.916;6.988;2023-03-01T10:20:52;4.43;;;2.45;;
75303;SDS011;64042;50.916;6.988;2023-03-01T10:23:18;3.08;;;2.72;;
75303;SDS011;64042;50.916;6.988;2023-03-01T10:25:48;3.17;;;2.17;;
75303;SDS011;64042;50.916;6.988;2023-03-01T10:28:26;2.80;;;2.50;;
75303;SDS011;64042;50.916;6.988;2023-03-01T10:30:56;3.78;;;3.45;;
75303;SDS011;64042;50.916;6.988;2023-03-01T10:33:23;6.10;;;2.80;;
75303;SDS011;64042;50.916;6.988;2023-03-01T10:35:51;3.70;;;2.63;;
75303;SDS011;64042;50.916;6.988;2023-03-01T10:38:18;4.50;;;2.83;;
75303;SDS011;64042;50.916;6.988;2023-03-01T10:40:52;5.55;;;3.08;;
75303;SDS011;64042;50.916;6.988;2023-03-01T10:45:44;6.25;;;5.20;;
75303;SDS011;64042;50.916;6.988;2023-03-01T10:48:11;5.15;;;3.40;;
75303;SDS011;64042;50.916;6.988;2023-03-01T10:55:55;4.53;;;3.88;;
75303;SDS011;64042;50.916;6.988;2023-03-01T10:58:22;5.45;;;3.30;;
75303;SDS011;64042;50.916;6.988;2023-03-01T11:00:49;4.50;;;3.85;;
75303;SDS011;64042;50.916;6.988;2023-03-01T11:03:28;5.10;;;3.67;;
75303;SDS011;64042;50.916;6.988;2023-03-01T11:05:59;4.88;;;3.47;;
75303;SDS011;64042;50.916;6.988;2023-03-01T11:08:46;5.85;;;3.22;;
75303;SDS011;64042;50.916;6.988;2023-03-01T11:16:27;6.00;;;3.40;;
75303;SDS011;64042;50.916;6.988;2023-03-01T11:19:04;6.35;;;3.42;;
75303;SDS011;64042;50.916;6.988;2023-03-01T11:21:44;5.93;;;3.13;;
75303;SDS011;64042;50.916;6.988;2023-03-01T11:24:15;5.43;;;3.97;;
75303;SDS011;64042;50.916;6.988;2023-03-01T11:26:42;5.22;;;3.75;;
75303;SDS011;64042;50.916;6.988;2023-03-01T11:32:07;7.97;;;7.18;;
75303;SDS011;64042;50.916;6.988;2023-03-01T11:34:47;5.30;;;3.35;;
75303;SDS011;64042;50.916;6.988;2023-03-01T11:37:39;4.25;;;3.15;;
75303;SDS011;64042;50.916;6.988;2023-03-01T11:40:23;5.10;;;3.15;;
75303;SDS011;64042;50.916;6.988;2023-03-01T11:57:17;4.50;;;3.20;;
75303;SDS011;64042;50.916;6.988;2023-03-01T11:59:57;5.35;;;3.13;;
75303;SDS011;64042;50.916;6.988;2023-03-01T12:02:37;8.52;;;3.97;;
75303;SDS011;64042;50.916;6.988;2023-03-01T12:05:23;8.32;;;5.15;;
75303;SDS011;64042;50.916;6.988;2023-03-01T12:08:11;7.25;;;3.25;;
75303;SDS011;64042;50.916;6.988;2023-03-01T12:10:48;4.38;;;2.85;;
75303;SDS011;64042;50.916;6.988;2023-03-01T12:19:17;5.15;;;2.95;;
75303;SDS011;64042;50.916;6.988;2023-03-01T12:21:57;5.28;;;2.92;;
75303;SDS011;64042;50.916;6.988;2023-03-01T12:24:36;5.28;;;2.53;;
75303;SDS011;64042;50.916;6.988;2023-03-01T12:27:30;5.95;;;2.53;;
75303;SDS011;64042;50.916;6.988;2023-03-01T12:30:02;4.78;;;2.47;;
75303;SDS011;64042;50.916;6.988;2023-03-01T12:32:55;5.60;;;3.13;;
75303;SDS011;64042;50.916;6.988;2023-03-01T12:40:43;4.20;;;2.87;;
75303;SDS011;64042;50.916;6.988;2023-03-01T12:48:31;4.88;;;4.43;;
75303;SDS011;64042;50.916;6.988;2023-03-01T12:51:03;3.05;;;2.40;;
75303;SDS011;64042;50.916;6.988;2023-03-01T12:53:32;4.18;;;3.78;;
75303;SDS011;64042;50.916;6.988;2023-03-01T12:56:02;5.57;;;4.18;;
75303;SDS011;64042;50.916;6.988;2023-03-01T13:01:41;4.90;;;2.75;;
75303;SDS011;64042;50.916;6.988;2023-03-01T13:04:27;4.35;;;3.00;;
75303;SDS011;64042;50.916;6.988;2023-03-01T13:07:15;5.75;;;2.90;;
75303;SDS011;64042;50.916;6.988;2023-03-01T13:17:48;5.80;;;3.37;;
75303;SDS011;64042;50.916;6.988;2023-03-01T13:20:17;4.60;;;3.10;;
75303;SDS011;64042;50.916;6.988;2023-03-01T13:22:46;5.60;;;3.53;;
75303;SDS011;64042;50.916;6.988;2023-03-01T13:25:19;3.17;;;2.88;;
75303;SDS011;64042;50.916;6.988;2023-03-01T13:27:45;5.28;;;3.10;;
75303;SDS011;64042;50.916;6.988;2023-03-01T13:35:48;4.78;;;2.72;;
75303;SDS011;64042;50.916;6.988;2023-03-01T13:41:04;4.45;;;3.05;;
75303;SDS011;64042;50.916;6.988;2023-03-01T13:46:07;4.65;;;4.25;;
75303;SDS011;64042;50.916;6.988;2023-03-01T13:48:34;3.53;;;2.65;;
75303;SDS011;64042;50.916;6.988;2023-03-01T13:51:03;4.15;;;2.70;;
75303;SDS011;64042;50.916;6.988;2023-03-01T13:53:33;4.18;;;2.70;;
75303;SDS011;64042;50.916;6.988;2023-03-01T13:56:03;3.55;;;2.58;;
75303;SDS011;64042;50.916;6.988;2023-03-01T13:58:33;3.55;;;2.25;;
75303;SDS011;64042;50.916;6.988;2023-03-01T14:01:20;3.28;;;2.35;;
75303;SDS011;64042;50.916;6.988;2023-03-01T14:03:47;5.15;;;2.80;;
75303;SDS011;64042;50.916;6.988;2023-03-01T14:06:14;3.28;;;2.30;;
75303;SDS011;64042;50.916;6.988;2023-03-01T14:08:42;4.05;;;2.50;;
75303;SDS011;64042;50.916;6.988;2023-03-01T14:19:14;3.60;;;2.70;;
75303;SDS011;64042;50.916;6.988;2023-03-01T14:21:41;3.58;;;2.17;;
75303;SDS011;64042;50.916;6.988;2023-03-01T14:24:13;2.88;;;2.47;;
75303;SDS011;64042;50.916;6.988;2023-03-01T14:26:42;6.10;;;2.70;;
75303;SDS011;64042;50.916;6.988;2023-03-01T14:29:22;3.90;;;2.53;;
75303;SDS011;64042;50.916;6.988;2023-03-01T14:31:48;3.58;;;2.22;;
75303;SDS011;64042;50.916;6.988;2023-03-01T14:34:21;3.85;;;2.58;;
75303;SDS011;64042;50.916;6.988;2023-03-01T14:36:47;3.45;;;1.98;;
75303;SDS011;64042;50.916;6.988;2023-03-01T14:39:16;2.77;;;2.20;;
75303;SDS011;64042;50.916;6.988;2023-03-01T14:41:42;2.75;;;2.45;;
75303;SDS011;64042;50.916;6.988;2023-03-01T14:44:12;3.67;;;2.60;;
75303;SDS011;64042;50.916;6.988;2023-03-01T14:46:41;3.88;;;2.60;;
75303;SDS011;64042;50.916;6.988;2023-03-01T14:51:52;2.53;;;2.20;;
75303;SDS011;64042;50.916;6.988;2023-03-01T14:54:23;2.85;;;2.40;;
75303;SDS011;64042;50.916;6.988;2023-03-01T14:56:50;3.47;;;2.30;;
75303;SDS011;64042;50.916;6.988;2023-03-01T14:59:18;2.70;;;1.90;;
75303;SDS011;64042;50.916;6.988;2023-03-01T15:01:46;3.47;;;2.28;;
75303;SDS011;64042;50.916;6.988;2023-03-01T15:04:12;5.10;;;2.58;;
75303;SDS011;64042;50.916;6.988;2023-03-01T15:06:38;3.63;;;2.33;;
75303;SDS011;64042;50.916;6.988;2023-03-01T15:09:04;5.00;;;2.50;;
75303;SDS011;64042;50.916;6.988;2023-03-01T15:11:30;4.28;;;2.53;;
75303;SDS011;64042;50.916;6.988;2023-03-01T15:13:57;4.22;;;2.50;;
75303;SDS011;64042;50.916;6.988;2023-03-01T15:16:24;2.97;;;2.25;;
75303;SDS011;64042;50.916;6.988;2023-03-01T15:18:53;3.78;;;2.50;;
75303;SDS011;64042;50.916;6.988;2023-03-01T15:21:21;4.30;;;3.90;;
75303;SDS011;64042;50.916;6.988;2023-03-01T15:23:53;3.10;;;2.50;;
75303;SDS011;64042;50.916;6.988;2023-03-01T15:26:30;3.22;;;2.38;;
75303;SDS011;64042;50.916;6.988;2023-03-01T15:28:58;4.38;;;2.40;;
75303;SDS011;64042;50.916;6.988;2023-03-01T15:31:25;2.50;;;2.30;;
75303;SDS011;64042;50.916;6.988;2023-03-01T15:34:10;3.38;;;2.58;;
75303;SDS011;64042;50.916;6.988;2023-03-01T15:36:45;4.00;;;2.67;;
75303;SDS011;64042;50.916;6.988;2023-03-01T15:39:30;3.10;;;2.80;;
75303;SDS011;64042;50.916;6.988;2023-03-01T15:41:55;4.55;;;2.90;;
75303;SDS011;64042;50.916;6.988;2023-03-01T15:44:28;4.95;;;2.47;;
75303;SDS011;64042;50.916;6.988;2023-03-01T15:46:55;3.50;;;1.92;;
75303;SDS011;64042;50.916;6.988;2023-03-01T15:49:27;4.75;;;2.60;;
75303;SDS011;64042;50.916;6.988;2023-03-01T15:51:58;2.88;;;2.28;;
75303;SDS011;64042;50.916;6.988;2023-03-01T15:54:24;5.15;;;2.55;;
75303;SDS011;64042;50.916;6.988;2023-03-01T15:56:50;3.58;;;2.40;;
75303;SDS011;64042;50.916;6.988;2023-03-01T15:59:16;6.90;;;2.72;;
75303;SDS011;64042;50.916;6.988;2023-03-01T16:01:42;4.70;;;2.33;;
75303;SDS011;64042;50.916;6.988;2023-03-01T16:04:11;2.67;;;2.22;;
75303;SDS011;64042;50.916;6.988;2023-03-01T16:06:45;5.18;;;3.92;;
75303;SDS011;64042;50.916;6.988;2023-03-01T16:09:18;3.45;;;1.95;;
75303;SDS011;64042;50.916;6.988;2023-03-01T16:11:44;3.85;;;2.55;;
75303;SDS011;64042;50.916;6.988;2023-03-01T16:14:10;3.90;;;2.43;;
75303;SDS011;64042;50.916;6.988;2023-03-01T16:16:35;3.22;;;2.47;;
75303;SDS011;64042;50.916;6.988;2023-03-01T16:19:00;3.10;;;2.00;;
75303;SDS011;64042;50.916;6.988;2023-03-01T16:21:26;2.40;;;1.83;;
75303;SDS011;64042;50.916;6.988;2023-03-01T16:23:51;3.13;;;1.98;;
75303;SDS011;64042;50.916;6.988;2023-03-01T16:26:17;2.72;;;2.08;;
75303;SDS011;64042;50.916;6.988;2023-03-01T16:28:44;4.35;;;2.33;;
75303;SDS011;64042;50.916;6.988;2023-03-01T16:31:10;3.65;;;2.42;;
75303;SDS011;64042;50.916;6.988;2023-03-01T16:33:36;3.55;;;2.20;;
75303;SDS011;64042;50.916;6.988;2023-03-01T16:36:09;2.83;;;2.17;;
75303;SDS011;64042;50.916;6.988;2023-03-01T16:38:35;3.17;;;2.40;;
75303;SDS011;64042;50.916;6.988;2023-03-01T16:41:00;5.38;;;2.80;;